sensor_id;sensor_type;location;lat;lon;timestamp;pressure;altitude;pressure_sealevel;temperature;humidity
70506;BME280;58032;49.820;6.274;2023-06-24T00:00:03;98557.16;;;13.07;100.00
70506;BME280;58032;49.820;6.274;2023-06-24T00:02:34;98562.91;;;13.16;100.00
70506;BME280;58032;49.820;6.274;2023-06-24T00:05:04;98558.16;;;13.26;100.00
70506;BME280;58032;49.820;6.274;2023-06-24T00:07:32;98559.75;;;13.40;100.00
70506;BME280;58032;49.820;6.274;2023-06-24T00:09:58;98564.72;;;13.49;100.00
70506;BME280;58032;49.820;6.274;2023-06-24T00:12:25;98554.84;;;13.53;100.00
70506;BME280;58032;49.820;6.274;2023-06-24T00:14:53;98558.97;;;13.52;100.00
70506;BME280;58032;49.820;6.274;2023-06-24T00:17:20;98562.47;;;13.43;100.00
70506;BME280;58032;49.820;6.274;2023-06-24T00:19:47;98560.78;;;13.33;100.00
70506;BME280;58032;49.820;6.274;2023-06-24T00:22:13;98568.56;;;13.29;100.00
70506;BME280;58032;49.820;6.274;2023-06-24T00:24:41;98573.88;;;13.27;100.00
70506;BME280;58032;49.820;6.274;2023-06-24T00:27:09;98567.34;;;13.17;100.00
70506;BME280;58032;49.820;6.274;2023-06-24T00:29:36;98570.72;;;12.99;100.00
70506;BME280;58032;49.820;6.274;2023-06-24T00:32:03;98569.25;;;12.81;100.00
70506;BME280;58032;49.820;6.274;2023-06-24T00:34:30;98563.69;;;12.65;100.00
70506;BME280;58032;49.820;6.274;2023-06-24T00:36:57;98566.94;;;12.50;100.00
70506;BME280;58032;49.820;6.274;2023-06-24T00:39:26;98563.44;;;12.46;100.00
70506;BME280;58032;49.820;6.274;2023-06-24T00:41:53;98566.59;;;12.48;100.00
70506;BME280;58032;49.820;6.274;2023-06-24T00:44:21;98560.03;;;12.51;100.00
70506;BME280;58032;49.820;6.274;2023-06-24T00:46:48;98562.56;;;12.62;100.00
70506;BME280;58032;49.820;6.274;2023-06-24T00:49:16;98557.38;;;12.74;100.00
70506;BME280;58032;49.820;6.274;2023-06-24T00:51:43;98562.69;;;12.85;100.00
70506;BME280;58032;49.820;6.274;2023-06-24T00:54:14;98555.22;;;12.91;100.00
70506;BME280;58032;49.820;6.274;2023-06-24T00:56:41;98558.41;;;12.93;100.00
70506;BME280;58032;49.820;6.274;2023-06-24T00:59:12;98554.44;;;12.90;100.00
70506;BME280;58032;49.820;6.274;2023-06-24T01:01:40;98551.75;;;12.87;100.00
70506;BME280;58032;49.820;6.274;2023-06-24T01:04:07;98559.88;;;12.85;100.00
70506;BME280;58032;49.820;6.274;2023-06-24T01:06:35;98555.13;;;12.94;100.00
70506;BME280;58032;49.820;6.274;2023-06-24T01:09:03;98559.88;;;12.97;100.00
70506;BME280;58032;49.820;6.274;2023-06-24T01:11:32;98570.28;;;13.01;100.00
70506;BME280;58032;49.820;6.274;2023-06-24T01:13:59;98561.13;;;12.96;100.00
70506;BME280;58032;49.820;6.274;2023-06-24T01:16:33;98566.44;;;12.94;100.00
70506;BME280;58032;49.820;6.274;2023-06-24T01:19:42;98554.34;;;12.94;100.00
70506;BME280;58032;49.820;6.274;2023-06-24T01:30:59;98565.28;;;12.24;100.00
70506;BME280;58032;49.820;6.274;2023-06-24T01:33:41;98563.31;;;12.08;100.00
70506;BME280;58032;49.820;6.274;2023-06-24T01:36:12;98561.63;;;12.10;100.00
70506;BME280;58032;49.820;6.274;2023-06-24T01:38:48;98561.44;;;12.17;100.00
70506;BME280;58032;49.820;6.274;2023-06-24T01:41:24;98562.47;;;12.24;100.00
70506;BME280;58032;49.820;6.274;2023-06-24T01:43:54;98554.16;;;12.33;100.00
70506;BME280;58032;49.820;6.274;2023-06-24T01:46:22;98568.72;;;12.44;100.00
70506;BME280;58032;49.820;6.274;2023-06-24T01:48:55;98555.63;;;12.50;100.00
70506;BME280;58032;49.820;6.274;2023-06-24T01:51:26;98555.09;;;12.56;100.00
70506;BME280;58032;49.820;6.274;2023-06-24T01:54:00;98551.34;;;12.59;100.00
70506;BME280;58032;49.820;6.274;2023-06-24T01:56:28;98557.00;;;12.59;100.00
70506;BME280;58032;49.820;6.274;2023-06-24T01:58:58;98561.41;;;12.60;100.00
70506;BME280;58032;49.820;6.274;2023-06-24T02:01:27;98554.31;;;12.68;100.00
70506;BME280;58032;49.820;6.274;2023-06-24T02:03:56;98554.31;;;12.68;100.00
70506;BME280;58032;49.820;6.274;2023-06-24T02:06:25;98553.84;;;12.70;100.00
70506;BME280;58032;49.820;6.274;2023-06-24T02:08:54;98545.03;;;12.55;100.00
70506;BME280;58032;49.820;6.274;2023-06-24T02:11:23;98552.38;;;12.52;100.00
70506;BME280;58032;49.820;6.274;2023-06-24T02:13:52;98551.69;;;12.61;100.00
70506;BME280;58032;49.820;6.274;2023-06-24T02:16:21;98548.00;;;12.64;100.00
70506;BME280;58032;49.820;6.274;2023-06-24T02:18:49;98550.56;;;12.58;100.00
70506;BME280;58032;49.820;6.274;2023-06-24T02:21:18;98546.75;;;12.23;100.00
70506;BME280;58032;49.820;6.274;2023-06-24T02:23:47;98547.78;;;11.99;100.00
70506;BME280;58032;49.820;6.274;2023-06-24T02:26:17;98546.16;;;11.85;100.00
70506;BME280;58032;49.820;6.274;2023-06-24T02:28:44;98546.25;;;11.82;100.00
70506;BME280;58032;49.820;6.274;2023-06-24T02:31:14;98553.28;;;11.90;100.00
70506;BME280;58032;49.820;6.274;2023-06-24T02:33:41;98549.13;;;11.95;100.00
70506;BME280;58032;49.820;6.274;2023-06-24T02:36:09;98543.59;;;11.91;100.00
70506;BME280;58032;49.820;6.274;2023-06-24T02:38:37;98546.50;;;11.87;100.00
70506;BME280;58032;49.820;6.274;2023-06-24T02:41:05;98540.06;;;11.87;100.00
70506;BME280;58032;49.820;6.274;2023-06-24T02:43:32;98552.47;;;11.90;100.00
70506;BME280;58032;49.820;6.274;2023-06-24T02:46:01;98550.00;;;11.92;100.00
70506;BME280;58032;49.820;6.274;2023-06-24T02:48:30;98555.66;;;11.92;100.00
70506;BME280;58032;49.820;6.274;2023-06-24T02:50:59;98564.47;;;11.94;100.00
70506;BME280;58032;49.820;6.274;2023-06-24T02:53:26;98555.56;;;11.95;100.00
70506;BME280;58032;49.820;6.274;2023-06-24T02:55:55;98555.84;;;12.01;100.00
70506;BME280;58032;49.820;6.274;2023-06-24T02:58:24;98559.94;;;12.13;100.00
70506;BME280;58032;49.820;6.274;2023-06-24T03:01:04;98561.44;;;12.17;100.00
70506;BME280;58032;49.820;6.274;2023-06-24T03:03:48;98570.94;;;12.24;100.00
70506;BME280;58032;49.820;6.274;2023-06-24T03:06:17;98570.38;;;12.29;100.00
70506;BME280;58032;49.820;6.274;2023-06-24T03:08:46;98573.91;;;12.33;100.00
70506;BME280;58032;49.820;6.274;2023-06-24T03:11:16;98573.34;;;12.38;100.00
70506;BME280;58032;49.820;6.274;2023-06-24T03:13:43;98574.59;;;12.37;100.00
70506;BME280;58032;49.820;6.274;2023-06-24T03:16:22;98572.84;;;12.27;100.00
70506;BME280;58032;49.820;6.274;2023-06-24T03:19:11;98565.69;;;12.09;100.00
70506;BME280;58032;49.820;6.274;2023-06-24T03:21:38;98570.31;;;11.86;100.00
70506;BME280;58032;49.820;6.274;2023-06-24T03:24:14;98567.97;;;11.68;100.00
70506;BME280;58032;49.820;6.274;2023-06-24T03:26:43;98570.06;;;11.64;100.00
70506;BME280;58032;49.820;6.274;2023-06-24T03:29:12;98565.56;;;11.67;100.00
70506;BME280;58032;49.820;6.274;2023-06-24T03:31:48;98568.91;;;11.78;100.00
70506;BME280;58032;49.820;6.274;2023-06-24T03:34:19;98576.75;;;11.87;100.00
70506;BME280;58032;49.820;6.274;2023-06-24T03:36:46;98580.28;;;11.91;100.00
70506;BME280;58032;49.820;6.274;2023-06-24T03:39:14;98577.09;;;11.89;100.00
70506;BME280;58032;49.820;6.274;2023-06-24T03:41:42;98584.66;;;11.92;100.00
70506;BME280;58032;49.820;6.274;2023-06-24T03:44:10;98573.81;;;12.07;100.00
70506;BME280;58032;49.820;6.274;2023-06-24T03:46:37;98567.66;;;12.25;100.00
70506;BME280;58032;49.820;6.274;2023-06-24T03:49:04;98570.97;;;12.37;100.00
70506;BME280;58032;49.820;6.274;2023-06-24T03:51:32;98581.81;;;12.38;100.00
70506;BME280;58032;49.820;6.274;2023-06-24T03:53:59;98572.97;;;12.65;100.00
70506;BME280;58032;49.820;6.274;2023-06-24T03:56:26;98570.81;;;12.82;100.00
70506;BME280;58032;49.820;6.274;2023-06-24T03:58:53;98565.88;;;12.87;100.00
70506;BME280;58032;49.820;6.274;2023-06-24T04:01:20;98566.09;;;12.79;100.00
70506;BME280;58032;49.820;6.274;2023-06-24T04:03:47;98573.53;;;12.73;100.00
70506;BME280;58032;49.820;6.274;2023-06-24T04:06:14;98562.69;;;12.85;100.00
70506;BME280;58032;49.820;6.274;2023-06-24T04:08:41;98572.41;;;12.83;100.00
70506;BME280;58032;49.820;6.274;2023-06-24T04:11:10;98575.50;;;13.02;100.00
70506;BME280;58032;49.820;6.274;2023-06-24T04:13:38;98575.59;;;13.11;100.00
70506;BME280;58032;49.820;6.274;2023-06-24T04:16:05;98574.00;;;13.36;100.00
70506;BME280;58032;49.820;6.274;2023-06-24T04:18:33;98567.63;;;13.58;100.00
70506;BME280;58032;49.820;6.274;2023-06-24T04:21:00;98563.03;;;13.86;100.00
70506;BME280;58032;49.820;6.274;2023-06-24T04:23:28;98561.41;;;13.98;100.00
70506;BME280;58032;49.820;6.274;2023-06-24T04:25:54;98565.97;;;13.96;100.00
70506;BME280;58032;49.820;6.274;2023-06-24T04:28:21;98566.88;;;13.92;100.00
70506;BME280;58032;49.820;6.274;2023-06-24T04:30:49;98573.09;;;14.00;100.00
70506;BME280;58032;49.820;6.274;2023-06-24T04:33:16;98568.66;;;14.21;100.00
70506;BME280;58032;49.820;6.274;2023-06-24T04:35:44;98561.44;;;14.43;100.00
70506;BME280;58032;49.820;6.274;2023-06-24T04:38:10;98554.53;;;14.66;100.00
70506;BME280;58032;49.820;6.274;2023-06-24T04:40:38;98559.66;;;16.08;100.00
70506;BME280;58032;49.820;6.274;2023-06-24T04:43:04;98551.00;;;17.59;100.00
70506;BME280;58032;49.820;6.274;2023-06-24T04:45:31;98546.56;;;18.76;100.00
70506;BME280;58032;49.820;6.274;2023-06-24T04:47:58;98541.53;;;20.13;100.00
70506;BME280;58032;49.820;6.274;2023-06-24T04:50:25;98546.56;;;18.61;100.00
70506;BME280;58032;49.820;6.274;2023-06-24T04:52:53;98535.94;;;18.46;100.00
70506;BME280;58032;49.820;6.274;2023-06-24T04:55:23;98541.78;;;21.21;100.00
70506;BME280;58032;49.820;6.274;2023-06-24T04:57:50;98538.00;;;22.50;100.00
70506;BME280;58032;49.820;6.274;2023-06-24T05:00:17;98534.09;;;23.04;100.00
70506;BME280;58032;49.820;6.274;2023-06-24T05:02:44;98545.44;;;24.48;100.00
70506;BME280;58032;49.820;6.274;2023-06-24T05:05:12;98540.94;;;24.11;100.00
70506;BME280;58032;49.820;6.274;2023-06-24T05:07:38;98542.66;;;23.67;100.00
70506;BME280;58032;49.820;6.274;2023-06-24T05:10:06;98544.31;;;21.45;100.00
70506;BME280;58032;49.820;6.274;2023-06-24T05:12:33;98546.75;;;18.42;100.00
70506;BME280;58032;49.820;6.274;2023-06-24T05:15:00;98549.03;;;17.99;100.00
70506;BME280;58032;49.820;6.274;2023-06-24T05:17:27;98551.84;;;17.75;100.00
70506;BME280;58032;49.820;6.274;2023-06-24T05:19:53;98546.03;;;18.47;100.00
70506;BME280;58032;49.820;6.274;2023-06-24T05:22:20;98558.84;;;17.98;100.00
70506;BME280;58032;49.820;6.274;2023-06-24T05:24:47;98551.69;;;18.02;100.00
70506;BME280;58032;49.820;6.274;2023-06-24T05:27:14;98549.91;;;18.44;100.00
70506;BME280;58032;49.820;6.274;2023-06-24T05:29:41;98553.03;;;18.61;100.00
70506;BME280;58032;49.820;6.274;2023-06-24T05:32:08;98556.38;;;19.20;100.00
70506;BME280;58032;49.820;6.274;2023-06-24T05:34:35;98547.28;;;19.36;100.00
70506;BME280;58032;49.820;6.274;2023-06-24T05:37:02;98547.72;;;19.50;100.00
70506;BME280;58032;49.820;6.274;2023-06-24T05:39:30;98568.03;;;18.17;100.00
70506;BME280;58032;49.820;6.274;2023-06-24T05:41:57;98564.38;;;18.01;100.00
70506;BME280;58032;49.820;6.274;2023-06-24T05:44:24;98561.69;;;17.98;100.00
70506;BME280;58032;49.820;6.274;2023-06-24T05:46:51;98567.22;;;18.16;100.00
70506;BME280;58032;49.820;6.274;2023-06-24T05:49:18;98567.03;;;18.05;100.00
70506;BME280;58032;49.820;6.274;2023-06-24T05:51:45;98563.03;;;18.27;100.00
70506;BME280;58032;49.820;6.274;2023-06-24T05:54:12;98553.78;;;18.32;100.00
70506;BME280;58032;49.820;6.274;2023-06-24T05:56:39;98564.34;;;18.41;100.00
70506;BME280;58032;49.820;6.274;2023-06-24T05:59:06;98566.53;;;17.58;100.00
70506;BME280;58032;49.820;6.274;2023-06-24T06:01:33;98563.66;;;18.31;100.00
70506;BME280;58032;49.820;6.274;2023-06-24T06:04:00;98561.50;;;18.86;100.00
70506;BME280;58032;49.820;6.274;2023-06-24T06:06:27;98568.31;;;18.88;100.00
70506;BME280;58032;49.820;6.274;2023-06-24T06:08:54;98565.75;;;18.75;100.00
70506;BME280;58032;49.820;6.274;2023-06-24T06:11:21;98560.34;;;18.62;100.00
70506;BME280;58032;49.820;6.274;2023-06-24T06:13:48;98550.03;;;19.45;100.00
70506;BME280;58032;49.820;6.274;2023-06-24T06:16:15;98560.34;;;19.43;100.00
70506;BME280;58032;49.820;6.274;2023-06-24T06:18:41;98562.50;;;20.04;100.00
70506;BME280;58032;49.820;6.274;2023-06-24T06:21:08;98565.16;;;19.87;100.00
70506;BME280;58032;49.820;6.274;2023-06-24T06:23:35;98565.91;;;19.67;100.00
70506;BME280;58032;49.820;6.274;2023-06-24T06:26:02;98555.94;;;19.98;100.00
70506;BME280;58032;49.820;6.274;2023-06-24T06:28:29;98561.44;;;20.02;100.00
70506;BME280;58032;49.820;6.274;2023-06-24T06:30:56;98558.03;;;20.45;100.00
70506;BME280;58032;49.820;6.274;2023-06-24T06:33:23;98557.56;;;20.52;100.00
70506;BME280;58032;49.820;6.274;2023-06-24T06:35:50;98557.16;;;21.23;100.00
70506;BME280;58032;49.820;6.274;2023-06-24T06:38:17;98556.25;;;21.06;100.00
70506;BME280;58032;49.820;6.274;2023-06-24T06:40:44;98548.66;;;21.72;100.00
70506;BME280;58032;49.820;6.274;2023-06-24T06:43:11;98563.16;;;21.25;100.00
70506;BME280;58032;49.820;6.274;2023-06-24T06:45:38;98555.53;;;21.97;100.00
70506;BME280;58032;49.820;6.274;2023-06-24T06:48:05;98559.69;;;22.74;100.00
70506;BME280;58032;49.820;6.274;2023-06-24T06:50:34;98553.16;;;21.96;100.00
70506;BME280;58032;49.820;6.274;2023-06-24T06:53:01;98551.13;;;22.02;100.00
70506;BME280;58032;49.820;6.274;2023-06-24T06:55:29;98556.25;;;22.53;100.00
70506;BME280;58032;49.820;6.274;2023-06-24T06:57:56;98554.44;;;23.46;100.00
70506;BME280;58032;49.820;6.274;2023-06-24T07:00:23;98560.22;;;23.06;100.00
70506;BME280;58032;49.820;6.274;2023-06-24T07:02:50;98559.91;;;22.48;100.00
70506;BME280;58032;49.820;6.274;2023-06-24T07:05:16;98558.63;;;23.51;100.00
70506;BME280;58032;49.820;6.274;2023-06-24T07:07:43;98557.03;;;23.61;100.00
70506;BME280;58032;49.820;6.274;2023-06-24T07:10:12;98548.03;;;24.94;100.00
70506;BME280;58032;49.820;6.274;2023-06-24T07:12:39;98543.63;;;24.87;100.00
70506;BME280;58032;49.820;6.274;2023-06-24T07:15:06;98549.50;;;25.06;100.00
70506;BME280;58032;49.820;6.274;2023-06-24T07:17:33;98545.69;;;24.92;100.00
70506;BME280;58032;49.820;6.274;2023-06-24T07:20:00;98543.28;;;24.60;100.00
70506;BME280;58032;49.820;6.274;2023-06-24T07:22:27;98543.50;;;24.68;100.00
70506;BME280;58032;49.820;6.274;2023-06-24T07:24:54;98541.31;;;24.80;100.00
70506;BME280;58032;49.820;6.274;2023-06-24T07:27:23;98543.47;;;25.90;100.00
70506;BME280;58032;49.820;6.274;2023-06-24T07:29:50;98550.53;;;25.09;100.00
70506;BME280;58032;49.820;6.274;2023-06-24T07:32:17;98552.88;;;24.32;100.00
70506;BME280;58032;49.820;6.274;2023-06-24T07:34:44;98540.69;;;25.54;100.00
70506;BME280;58032;49.820;6.274;2023-06-24T07:37:11;98547.59;;;25.15;100.00
70506;BME280;58032;49.820;6.274;2023-06-24T07:39:44;98539.84;;;26.09;100.00
70506;BME280;58032;49.820;6.274;2023-06-24T07:42:11;98540.41;;;26.97;100.00
70506;BME280;58032;49.820;6.274;2023-06-24T07:44:38;98541.03;;;27.22;100.00
70506;BME280;58032;49.820;6.274;2023-06-24T07:47:06;98539.84;;;26.28;100.00
70506;BME280;58032;49.820;6.274;2023-06-24T07:49:33;98550.56;;;25.89;100.00
70506;BME280;58032;49.820;6.274;2023-06-24T07:52:00;98546.84;;;26.13;100.00
70506;BME280;58032;49.820;6.274;2023-06-24T07:54:27;98547.94;;;26.10;100.00
70506;BME280;58032;49.820;6.274;2023-06-24T07:56:54;98552.91;;;27.51;100.00
70506;BME280;58032;49.820;6.274;2023-06-24T07:59:20;98546.47;;;26.80;100.00
70506;BME280;58032;49.820;6.274;2023-06-24T08:01:47;98542.78;;;26.60;100.00
70506;BME280;58032;49.820;6.274;2023-06-24T08:04:15;98548.53;;;26.03;100.00
70506;BME280;58032;49.820;6.274;2023-06-24T08:06:42;98541.50;;;25.98;100.00
70506;BME280;58032;49.820;6.274;2023-06-24T08:09:09;98535.34;;;28.16;98.01
70506;BME280;58032;49.820;6.274;2023-06-24T08:11:36;98536.78;;;27.83;97.21
70506;BME280;58032;49.820;6.274;2023-06-24T08:14:05;98533.66;;;28.21;100.00
70506;BME280;58032;49.820;6.274;2023-06-24T08:16:31;98523.22;;;27.05;100.00
70506;BME280;58032;49.820;6.274;2023-06-24T08:18:58;98528.94;;;27.24;100.00
70506;BME280;58032;49.820;6.274;2023-06-24T08:21:25;98523.16;;;26.91;100.00
70506;BME280;58032;49.820;6.274;2023-06-24T08:23:52;98523.84;;;26.27;100.00
70506;BME280;58032;49.820;6.274;2023-06-24T08:26:20;98515.78;;;26.77;100.00
70506;BME280;58032;49.820;6.274;2023-06-24T08:28:48;98512.28;;;26.46;100.00
70506;BME280;58032;49.820;6.274;2023-06-24T08:31:14;98518.19;;;27.78;100.00
70506;BME280;58032;49.820;6.274;2023-06-24T08:33:43;98509.13;;;29.12;88.80
70506;BME280;58032;49.820;6.274;2023-06-24T08:36:11;98525.03;;;28.42;81.84
70506;BME280;58032;49.820;6.274;2023-06-24T08:38:38;98524.91;;;27.27;88.68
70506;BME280;58032;49.820;6.274;2023-06-24T08:41:05;98514.53;;;29.58;80.21
70506;BME280;58032;49.820;6.274;2023-06-24T08:43:33;98499.19;;;30.15;67.86
70506;BME280;58032;49.820;6.274;2023-06-24T08:46:00;98502.78;;;29.64;71.81
70506;BME280;58032;49.820;6.274;2023-06-24T08:48:28;98492.56;;;29.42;71.24
70506;BME280;58032;49.820;6.274;2023-06-24T08:50:58;98501.84;;;29.19;67.76
70506;BME280;58032;49.820;6.274;2023-06-24T08:53:26;98518.56;;;27.28;81.13
70506;BME280;58032;49.820;6.274;2023-06-24T08:55:53;98518.09;;;26.02;94.22
70506;BME280;58032;49.820;6.274;2023-06-24T08:58:21;98517.81;;;25.06;100.00
70506;BME280;58032;49.820;6.274;2023-06-24T09:00:48;98520.22;;;27.10;94.59
70506;BME280;58032;49.820;6.274;2023-06-24T09:03:15;98509.47;;;28.05;79.63
70506;BME280;58032;49.820;6.274;2023-06-24T09:05:42;98510.13;;;28.94;80.55
70506;BME280;58032;49.820;6.274;2023-06-24T09:08:10;98512.47;;;29.37;62.19
70506;BME280;58032;49.820;6.274;2023-06-24T09:10:37;98505.59;;;30.22;56.88
70506;BME280;58032;49.820;6.274;2023-06-24T09:13:06;98504.41;;;32.42;50.07
70506;BME280;58032;49.820;6.274;2023-06-24T09:15:37;98506.22;;;31.34;46.96
70506;BME280;58032;49.820;6.274;2023-06-24T09:18:05;98505.44;;;31.57;55.07
70506;BME280;58032;49.820;6.274;2023-06-24T09:20:33;98512.09;;;29.99;53.83
70506;BME280;58032;49.820;6.274;2023-06-24T09:23:06;98512.84;;;27.42;70.57
70506;BME280;58032;49.820;6.274;2023-06-24T09:25:33;98501.44;;;28.94;63.89
70506;BME280;58032;49.820;6.274;2023-06-24T09:28:01;98504.16;;;29.71;58.60
70506;BME280;58032;49.820;6.274;2023-06-24T09:30:28;98496.25;;;30.60;61.28
70506;BME280;58032;49.820;6.274;2023-06-24T09:32:55;98503.06;;;28.47;61.42
70506;BME280;58032;49.820;6.274;2023-06-24T09:35:24;98507.78;;;27.15;73.18
70506;BME280;58032;49.820;6.274;2023-06-24T09:37:55;98502.66;;;26.57;75.22
70506;BME280;58032;49.820;6.274;2023-06-24T09:40:23;98493.59;;;26.66;77.76
70506;BME280;58032;49.820;6.274;2023-06-24T09:42:58;98485.22;;;26.30;84.16
70506;BME280;58032;49.820;6.274;2023-06-24T09:45:28;98474.91;;;26.53;80.36
70506;BME280;58032;49.820;6.274;2023-06-24T09:47:56;98478.16;;;27.55;79.08
70506;BME280;58032;49.820;6.274;2023-06-24T09:50:24;98479.88;;;27.18;74.61
70506;BME280;58032;49.820;6.274;2023-06-24T09:52:56;98476.13;;;26.77;79.99
70506;BME280;58032;49.820;6.274;2023-06-24T09:55:24;98475.03;;;26.61;80.14
70506;BME280;58032;49.820;6.274;2023-06-24T09:57:53;98471.34;;;26.28;82.60
70506;BME280;58032;49.820;6.274;2023-06-24T10:00:20;98468.72;;;26.05;81.74
70506;BME280;58032;49.820;6.274;2023-06-24T10:02:48;98463.25;;;25.83;90.00
70506;BME280;58032;49.820;6.274;2023-06-24T10:05:16;98460.41;;;26.21;79.02
70506;BME280;58032;49.820;6.274;2023-06-24T10:07:43;98470.56;;;26.09;79.69
70506;BME280;58032;49.820;6.274;2023-06-24T10:10:10;98465.34;;;26.78;85.39
70506;BME280;58032;49.820;6.274;2023-06-24T10:12:37;98464.38;;;26.69;78.24
70506;BME280;58032;49.820;6.274;2023-06-24T10:15:05;98461.22;;;26.54;74.83
70506;BME280;58032;49.820;6.274;2023-06-24T10:17:33;98463.22;;;26.07;69.55
70506;BME280;58032;49.820;6.274;2023-06-24T10:20:04;98452.81;;;25.80;71.74
70506;BME280;58032;49.820;6.274;2023-06-24T10:22:32;98456.28;;;25.97;72.40
70506;BME280;58032;49.820;6.274;2023-06-24T10:25:00;98448.53;;;25.86;76.94
70506;BME280;58032;49.820;6.274;2023-06-24T10:27:28;98454.59;;;25.83;65.63
70506;BME280;58032;49.820;6.274;2023-06-24T10:30:02;98439.81;;;26.11;77.38
70506;BME280;58032;49.820;6.274;2023-06-24T10:32:41;98452.75;;;26.43;74.13
70506;BME280;58032;49.820;6.274;2023-06-24T10:35:25;98449.66;;;26.21;74.25
70506;BME280;58032;49.820;6.274;2023-06-24T10:38:00;98441.72;;;26.09;69.25
70506;BME280;58032;49.820;6.274;2023-06-24T10:40:42;98439.78;;;25.54;66.08
70506;BME280;58032;49.820;6.274;2023-06-24T10:43:27;98431.72;;;26.10;68.07
70506;BME280;58032;49.820;6.274;2023-06-24T10:45:57;98437.56;;;26.23;57.99
70506;BME280;58032;49.820;6.274;2023-06-24T10:48:25;98434.63;;;26.42;61.99
70506;BME280;58032;49.820;6.274;2023-06-24T10:50:52;98433.34;;;26.24;61.87
70506;BME280;58032;49.820;6.274;2023-06-24T10:53:21;98428.13;;;26.55;72.04
70506;BME280;58032;49.820;6.274;2023-06-24T10:55:48;98423.31;;;26.77;68.64
70506;BME280;58032;49.820;6.274;2023-06-24T10:58:15;98425.38;;;26.95;60.03
70506;BME280;58032;49.820;6.274;2023-06-24T11:00:43;98420.03;;;26.86;54.05
70506;BME280;58032;49.820;6.274;2023-06-24T11:03:15;98415.84;;;27.54;54.69
70506;BME280;58032;49.820;6.274;2023-06-24T11:05:44;98414.03;;;27.78;54.12
70506;BME280;58032;49.820;6.274;2023-06-24T11:08:11;98412.44;;;26.50;61.54
70506;BME280;58032;49.820;6.274;2023-06-24T11:10:48;98417.84;;;25.20;69.72
70506;BME280;58032;49.820;6.274;2023-06-24T11:13:15;98406.75;;;25.93;64.15
70506;BME280;58032;49.820;6.274;2023-06-24T11:15:42;98404.72;;;27.45;62.46
70506;BME280;58032;49.820;6.274;2023-06-24T11:18:10;98393.53;;;28.24;50.61
70506;BME280;58032;49.820;6.274;2023-06-24T11:20:38;98394.41;;;28.53;47.08
70506;BME280;58032;49.820;6.274;2023-06-24T11:23:09;98394.50;;;29.11;47.15
70506;BME280;58032;49.820;6.274;2023-06-24T11:25:41;98388.19;;;29.57;37.74
70506;BME280;58032;49.820;6.274;2023-06-24T11:28:16;98389.84;;;29.08;36.96
70506;BME280;58032;49.820;6.274;2023-06-24T11:30:45;98386.50;;;28.54;43.66
70506;BME280;58032;49.820;6.274;2023-06-24T11:33:12;98386.88;;;29.29;44.16
70506;BME280;58032;49.820;6.274;2023-06-24T11:35:39;98380.72;;;30.29;41.45
70506;BME280;58032;49.820;6.274;2023-06-24T11:38:05;98382.25;;;30.23;41.18
70506;BME280;58032;49.820;6.274;2023-06-24T11:40:33;98376.06;;;30.19;39.50
70506;BME280;58032;49.820;6.274;2023-06-24T11:43:00;98378.81;;;30.47;40.89
70506;BME280;58032;49.820;6.274;2023-06-24T11:45:28;98378.50;;;28.89;40.64
70506;BME280;58032;49.820;6.274;2023-06-24T11:48:01;98373.34;;;30.21;40.67
70506;BME280;58032;49.820;6.274;2023-06-24T11:50:31;98376.94;;;28.67;40.18
70506;BME280;58032;49.820;6.274;2023-06-24T11:52:58;98373.75;;;30.40;41.21
70506;BME280;58032;49.820;6.274;2023-06-24T11:55:27;98366.16;;;31.94;37.49
70506;BME280;58032;49.820;6.274;2023-06-24T11:57:59;98368.59;;;31.72;37.57
70506;BME280;58032;49.820;6.274;2023-06-24T12:00:30;98353.56;;;32.75;35.28
70506;BME280;58032;49.820;6.274;2023-06-24T12:03:00;98347.56;;;33.34;30.45
70506;BME280;58032;49.820;6.274;2023-06-24T12:05:29;98355.66;;;31.99;31.31
70506;BME280;58032;49.820;6.274;2023-06-24T12:08:00;98345.09;;;32.03;33.04
70506;BME280;58032;49.820;6.274;2023-06-24T12:10:29;98345.25;;;30.15;34.03
70506;BME280;58032;49.820;6.274;2023-06-24T12:12:56;98346.47;;;30.82;36.52
70506;BME280;58032;49.820;6.274;2023-06-24T12:15:24;98332.16;;;31.56;33.27
70506;BME280;58032;49.820;6.274;2023-06-24T12:17:51;98343.94;;;31.09;35.03
70506;BME280;58032;49.820;6.274;2023-06-24T12:20:18;98336.84;;;31.92;34.68
70506;BME280;58032;49.820;6.274;2023-06-24T12:22:46;98319.50;;;32.35;34.38
70506;BME280;58032;49.820;6.274;2023-06-24T12:25:13;98340.22;;;29.56;33.43
70506;BME280;58032;49.820;6.274;2023-06-24T12:27:41;98325.41;;;29.31;36.25
70506;BME280;58032;49.820;6.274;2023-06-24T12:30:09;98329.84;;;31.47;32.71
70506;BME280;58032;49.820;6.274;2023-06-24T12:32:37;98328.31;;;31.86;31.34
70506;BME280;58032;49.820;6.274;2023-06-24T12:35:04;98318.63;;;32.17;32.14
70506;BME280;58032;49.820;6.274;2023-06-24T12:37:32;98325.69;;;30.93;31.12
70506;BME280;58032;49.820;6.274;2023-06-24T12:40:00;98313.88;;;32.29;33.57
70506;BME280;58032;49.820;6.274;2023-06-24T12:42:27;98313.38;;;32.91;32.90
70506;BME280;58032;49.820;6.274;2023-06-24T12:44:54;98316.88;;;32.14;32.39
70506;BME280;58032;49.820;6.274;2023-06-24T12:47:21;98304.28;;;32.87;29.42
70506;BME280;58032;49.820;6.274;2023-06-24T12:49:49;98310.97;;;32.55;29.80
70506;BME280;58032;49.820;6.274;2023-06-24T12:52:16;98315.06;;;30.73;31.66
70506;BME280;58032;49.820;6.274;2023-06-24T12:54:43;98302.22;;;31.07;33.17
70506;BME280;58032;49.820;6.274;2023-06-24T12:57:10;98311.63;;;31.38;30.29
70506;BME280;58032;49.820;6.274;2023-06-24T12:59:39;98312.38;;;30.67;30.64
70506;BME280;58032;49.820;6.274;2023-06-24T13:02:06;98305.47;;;31.26;29.73
70506;BME280;58032;49.820;6.274;2023-06-24T13:04:33;98302.25;;;31.55;31.39
70506;BME280;58032;49.820;6.274;2023-06-24T13:07:00;98321.03;;;30.98;32.24